Dugway, UT (84022)

11:03 PM MDT on October 19, 2014 (GMT -0600)
Eagle Range | Change Station
CLOSE
Current Station
Airport
Location: Eagle Range,
Elevation: 4239 ft
Nearby Weather Stations

Elev 4239 ft 41.05 °N, 113.07 °W | Updated 1 hour ago

Clear
Clear
52 °F
Feels Like 52 °F
N
0
Wind Variable Wind from North

Today
High -- | Low -- °F
--% Chance of Precip.
Yesterday
High -- | Low -- °F
Precip. -- in
7:46 AM 6:45 PM
Waning Crescent, 13% visible
Pressure 28.91 in
Visibility 10.0 miles
Clouds Clear
Dew Point 34 °F
Humidity 50%
Rainfall 0.00 in
Snow Depth Not available.
UV 0 out of 12
Pollen 1.80 out of 12
PM2.5 Good
Flu Activity Sporadic
METAR KU16 200358Z AUTO 00000KT 10SM CLR 11/01 A3001 RMK AO2 SLP788 T01110011 $

More Conditions Fewer Conditions

Pressure 28.91 in
Visibility 10.0 miles
Clouds Clear
Dew Point 34 °F
Humidity 50%
Rainfall 0.00 in
Snow Depth Not available.
UV 0 out of 12
Pollen 1.80 out of 12
PM2.5 Good
Flu Activity Sporadic
METAR KU16 200358Z AUTO 00000KT 10SM CLR 11/01 A3001 RMK AO2 SLP788 T01110011 $

More Conditions Fewer Conditions

10-Day Weather Forecast

Almanac

Astronomy

Oct. 19, 2014 Rise Set
Actual Time 7:46 AM MDT 6:45 PM MDT
Civil Twilight 7:18 AM MDT 7:12 PM MDT
Nautical Twilight 6:47 AM MDT 7:44 PM MDT
Astronomical Twilight 6:15 AM MDT 8:15 PM MDT
Moon 3:42 AM MDT (10/19) 4:39 PM MDT (10/19)
Length of Visible Light 11h 54m
Length of Day
10h 58m
Waning Crescent, 13% of the Moon is Illuminated
Oct 20
Waning Crescent
Oct 23
New
Oct 30
First Quarter
Nov 6
Full
Nov 14
Last Quarter

Yesterday's Extremes

State Highs State Lows

Community

WunderPhotos

Upload Photos

1,763,306 photos uploaded!

Nearby

Air Quality

  Air Quality AQ Index Pollutant
Yesterday Good
PM2.5
Current Good
PM2.5

Snow Depth

Station Depth Elevation
Vernon Creek 0 in 7500 ft
Dry Fork 0 in 7160 ft
Cascade Mountain 1 in 7768 ft
Louis Meadow 0 in 6700 ft
Brighton 0 in 8750 ft

Earthquake Activity

City Distance Mag. Time & Date
No recent earthquake activity has been reported nearby.
Minimum magnitude displayed is 2.5.

Coastal Water Temperatures

Place Temperature
No Stations Reporting

Nearby Weather Stations